»·PEaware :: N197MG KAVX-KSAN

N197MG :: KAVX-KSAN

FLIGHT INFORMATION

Flight Status: Arrived
Operator: Privately registered:
United States
More flights under this callsign
Pilot: Mike G. (11411)
Aircraft: PIPER PA-31/31P NAVAJO CHIEFTAIN
(PA31)
More flights by this aircraft type
Origin: KAVX Catalina
United States
Destination: KSAN San Diego Intl-Lindbergh
United States
More flights between these airports :: More routes between these airports
Route: +SXC V208 OCN V23 MZB
File this flight plan on PilotEdge
Remarks:
Altitude:
(Current/Filed)
5,000ft
Speed:
(Current/Filed)
160kts
Departed: 07-May-18 03:40 PM
Arrived: 07-May-18 04:30 PM
Distance/Time
Traveled:
74nm/0:50
Distance/Time
To Go:
Arrived

Flight Plot

Page will automatically refresh every two minutes.


Map Options




Map Legend


Flown Route
Filed Route
Departure Airport
Arrival Airport
Navaid (VOR, NDB)
Fix

Horizontal Profiles

Position Reports

Time Latitude Longitude Heading Altitude Ground
Speed
07-May-18 15:16 33.403518 -118.414797 139 1606ft 0kts
07-May-18 15:17 33.403518 -118.414797 139 1606ft 0kts
07-May-18 15:18 33.403518 -118.414797 139 1606ft 0kts
07-May-18 15:19 33.403518 -118.414797 139 1606ft 0kts
07-May-18 15:20 33.403518 -118.414797 139 1606ft 0kts
07-May-18 15:21 33.675803 -117.873122 209 58ft 0kts
07-May-18 15:22 33.675803 -117.873122 209 58ft 0kts
07-May-18 15:23 33.403518 -118.414797 139 1606ft 0kts
07-May-18 15:24 33.403518 -118.414797 139 1606ft 0kts
07-May-18 15:25 33.403518 -118.414797 139 1606ft 0kts
07-May-18 15:26 33.403518 -118.414797 139 1606ft 0kts
07-May-18 15:27 33.403518 -118.414797 139 1606ft 0kts
07-May-18 15:28 33.403518 -118.414797 139 1606ft 0kts
07-May-18 15:29 33.403518 -118.414797 139 1606ft 0kts
07-May-18 15:30 33.403518 -118.414797 139 1606ft 0kts
07-May-18 15:31 33.403518 -118.414797 139 1606ft 0kts
07-May-18 15:32 33.403516 -118.414795 139 1606ft 0kts
07-May-18 15:33 33.403514 -118.414793 139 1606ft 0kts
07-May-18 15:34 33.403512 -118.414791 139 1606ft 0kts
07-May-18 15:35 33.403510 -118.414789 139 1606ft 0kts
07-May-18 15:36 33.403530 -118.414809 139 1606ft 1kts
07-May-18 15:37 33.403347 -118.416116 296 1606ft 9kts
07-May-18 15:38 33.405035 -118.414736 58 1606ft 18kts
07-May-18 15:39 33.407457 -118.411360 315 1606ft 5kts
07-May-18 15:40 33.406676 -118.412957 234 1606ft 48kts
07-May-18 15:41 33.389638 -118.439560 232 3111ft 114kts
07-May-18 15:42 33.362577 -118.471999 184 4034ft 187kts
07-May-18 15:43 33.346135 -118.421923 57 4012ft 204kts
07-May-18 15:44 33.365950 -118.364964 87 4010ft 180kts
07-May-18 15:45 33.360214 -118.305398 98 3951ft 179kts
07-May-18 15:46 33.352738 -118.248771 98 4256ft 163kts
07-May-18 15:47 33.346187 -118.198479 97 4982ft 156kts
07-May-18 15:48 33.339003 -118.144270 98 5064ft 171kts
07-May-18 15:49 33.331475 -118.087672 98 5096ft 174kts
07-May-18 15:50 33.323796 -118.029968 98 5092ft 173kts
07-May-18 15:51 33.316084 -117.972204 98 4983ft 175kts
07-May-18 15:52 33.308357 -117.914482 98 4989ft 176kts
07-May-18 15:53 33.300551 -117.856418 98 4988ft 177kts
07-May-18 15:54 33.292716 -117.798290 98 4988ft 177kts
07-May-18 15:55 33.285930 -117.748115 98 4990ft 177kts
07-May-18 15:56 33.277703 -117.693266 99 4995ft 177kts
07-May-18 15:57 33.268923 -117.635183 99 4996ft 177kts
07-May-18 15:58 33.260146 -117.577292 99 5000ft 177kts
07-May-18 15:59 33.252973 -117.519062 97 5001ft 177kts
07-May-18 16:00 33.245936 -117.460827 97 5002ft 177kts
07-May-18 16:01 33.225674 -117.410798 158 4996ft 175kts
07-May-18 16:02 33.179492 -117.391807 161 4994ft 176kts
07-May-18 16:03 33.133245 -117.372411 161 4994ft 175kts
07-May-18 16:04 33.087177 -117.353041 161 4994ft 175kts
07-May-18 16:05 33.040845 -117.333591 161 4993ft 176kts
07-May-18 16:06 32.994578 -117.314182 161 4993ft 176kts
07-May-18 16:07 32.948289 -117.294774 161 4993ft 176kts
07-May-18 16:08 32.901872 -117.275354 161 4993ft 176kts
07-May-18 16:09 32.855606 -117.256011 161 4990ft 176kts
07-May-18 16:10 32.820433 -117.221029 103 4999ft 179kts
07-May-18 16:11 32.809821 -117.163242 101 5004ft 178kts
07-May-18 16:12 32.799899 -117.107799 101 4994ft 152kts
07-May-18 16:13 32.791465 -117.060428 101 4989ft 141kts
07-May-18 16:14 32.784006 -117.017962 101 4978ft 125kts
07-May-18 16:15 32.776815 -116.976691 101 4977ft 130kts
07-May-18 16:16 32.769318 -116.933512 101 4967ft 133kts
07-May-18 16:17 32.761872 -116.890338 101 4975ft 134kts
07-May-18 16:18 32.754260 -116.845994 101 4975ft 136kts
07-May-18 16:19 32.728462 -116.840442 221 4965ft 126kts
07-May-18 16:20 32.701358 -116.867648 221 4772ft 132kts
07-May-18 16:21 32.674144 -116.895216 221 4775ft 125kts
07-May-18 16:22 32.671357 -116.932273 283 4774ft 122kts
07-May-18 16:23 32.680427 -116.971754 285 4523ft 130kts
07-May-18 16:24 32.690461 -117.011921 285 3482ft 133kts
07-May-18 16:25 32.700140 -117.051554 284 2673ft 111kts
07-May-18 16:26 32.708758 -117.086803 283 2068ft 92kts
07-May-18 16:27 32.715524 -117.117342 278 1629ft 94kts
07-May-18 16:27 32.722474 -117.142417 284 1136ft 95kts
07-May-18 16:28 32.729578 -117.172981 281 224ft 88kts
07-May-18 16:29 32.733442 -117.190249 220 19ft 6kts
07-May-18 16:30 32.732979 -117.190454 195 19ft 0kts
07-May-18 16:31 32.732978 -117.190454 195 19ft 0kts
07-May-18 16:32 32.731277 -117.190998 195 19ft 0kts
07-May-18 16:33 32.731277 -117.190998 195 19ft 0kts
07-May-18 16:34 32.731277 -117.190998 195 19ft 0kts
07-May-18 16:36 32.731277 -117.190998 195 19ft 0kts
07-May-18 16:36 32.731277 -117.190998 195 19ft 0kts
07-May-18 16:37 32.731277 -117.190998 195 19ft 0kts
07-May-18 16:38 32.731277 -117.190998 195 19ft 0kts
07-May-18 16:39 32.731277 -117.190998 195 19ft 0kts
07-May-18 16:40 32.731277 -117.190998 195 19ft 0kts
07-May-18 16:41 32.731277 -117.190998 195 19ft 0kts
07-May-18 16:42 32.731277 -117.190998 195 19ft 0kts
07-May-18 16:43 32.731277 -117.190998 195 19ft 0kts

Navigation Log

Ident Type
1. KAVX Airport
2. SXC Navaid
3. AVOLS Fix
4. PACIF Fix
5. HUBRD Fix
6. OCN Navaid
7. HURSI Fix
8. CARIF Fix
9. MZB Navaid
10. KSAN Airport